Time;durP1;ratioP1;P1;durP2;ratioP2;P2;SDS_P1;SDS_P2;PMS_P1;PMS_P2;Temp;Humidity;BMP_temperature;BMP_pressure;BME280_temperature;BME280_humidity;BME280_pressure;Samples;Min_cycle;Max_cycle;Signal;HPM_P1;HPM_P2
2022/04/30 00:00:22;;;;;;;10.10;5.10;;;;;;;;;;2105420;28;20051;-45
2022/04/30 00:01:22;;;;;;;10.35;5.72;;;;;;;;;;2105566;28;20058;-45
2022/04/30 00:02:24;;;;;;;10.15;5.80;;;;;;;;;;2105463;28;20051;-45
2022/04/30 00:03:27;;;;;;;8.70;5.35;;;;;;;;;;2105593;28;20044;-45
2022/04/30 00:04:29;;;;;;;9.73;5.47;;;;;;;;;;2105448;28;20055;-46
2022/04/30 00:05:32;;;;;;;11.00;5.53;;;;;;;;;;2105582;28;20080;-46
2022/04/30 00:06:33;;;;;;;11.15;5.35;;;;;;;;;;2105378;28;20055;-45
2022/04/30 00:07:34;;;;;;;10.03;5.50;;;;;;;;;;2105576;28;20048;-45
2022/04/30 00:08:36;;;;;;;8.63;5.28;;;;;;;;;;2105427;28;20177;-46
2022/04/30 00:09:36;;;;;;;9.02;4.90;;;;;;;;;;2105601;28;20040;-45
2022/04/30 00:10:38;;;;;;;9.05;5.15;;;;;;;;;;2105519;28;20485;-46
2022/04/30 00:11:39;;;;;;;10.05;5.25;;;;;;;;;;2105335;28;20094;-45
2022/04/30 00:12:41;;;;;;;9.67;5.23;;;;;;;;;;2105451;28;20078;-45
2022/04/30 00:13:41;;;;;;;8.63;5.07;;;;;;;;;;2106733;28;20520;-45
2022/04/30 00:14:44;;;;;;;8.23;4.90;;;;;;;;;;2107022;28;20113;-45
2022/04/30 00:15:46;;;;;;;8.05;4.60;;;;;;;;;;2106902;28;20040;-46
2022/04/30 00:16:47;;;;;;;8.85;4.45;;;;;;;;;;2106959;28;20047;-44
2022/04/30 00:17:50;;;;;;;9.70;5.07;;;;;;;;;;2106795;28;20512;-45
2022/04/30 00:18:50;;;;;;;9.23;4.88;;;;;;;;;;2102321;28;20054;-45
2022/04/30 00:19:52;;;;;;;13.03;5.33;;;;;;;;;;2098600;28;20556;-44
2022/04/30 00:20:53;;;;;;;9.95;4.60;;;;;;;;;;2098579;28;20124;-45
2022/04/30 00:21:54;;;;;;;12.00;5.23;;;;;;;;;;2098593;28;20189;-45
2022/04/30 00:22:55;;;;;;;10.50;5.30;;;;;;;;;;2098582;28;20040;-45
2022/04/30 00:23:56;;;;;;;9.32;5.00;;;;;;;;;;2098507;28;20048;-45
2022/04/30 00:24:57;;;;;;;10.52;5.70;;;;;;;;;;2098403;28;20036;-45
2022/04/30 00:25:59;;;;;;;13.30;5.87;;;;;;;;;;2098511;28;20041;-45
2022/04/30 00:27:01;;;;;;;7.57;5.25;;;;;;;;;;2098492;28;20047;-45
2022/04/30 00:28:02;;;;;;;17.38;5.80;;;;;;;;;;2098592;28;20131;-45
2022/04/30 00:29:03;;;;;;;9.90;5.25;;;;;;;;;;2098388;28;20055;-45
2022/04/30 00:30:05;;;;;;;9.70;5.60;;;;;;;;;;2098512;28;20135;-45
2022/04/30 00:31:06;;;;;;;10.40;5.28;;;;;;;;;;2098311;28;20405;-46
2022/04/30 00:32:08;;;;;;;12.45;5.97;;;;;;;;;;2098460;28;20123;-45
2022/04/30 00:33:10;;;;;;;8.02;4.90;;;;;;;;;;2098728;28;20048;-59
2022/04/30 00:34:11;;;;;;;9.90;5.78;;;;;;;;;;2098137;28;20451;-59
2022/04/30 00:35:13;;;;;;;12.73;5.85;;;;;;;;;;2098489;28;20131;-60
2022/04/30 00:36:14;;;;;;;11.80;6.00;;;;;;;;;;2098335;28;20048;-59
2022/04/30 00:37:15;;;;;;;9.63;5.00;;;;;;;;;;2098436;28;20498;-60
2022/04/30 00:38:16;;;;;;;10.30;5.10;;;;;;;;;;2098489;28;20056;-60
2022/04/30 00:39:17;;;;;;;8.50;5.22;;;;;;;;;;2098468;28;20066;-59
2022/04/30 00:40:18;;;;;;;11.10;5.30;;;;;;;;;;2098278;28;20045;-59
2022/04/30 00:41:21;;;;;;;10.48;5.07;;;;;;;;;;2101051;28;20205;-60
2022/04/30 00:42:22;;;;;;;12.95;5.68;;;;;;;;;;2106836;28;20127;-59
2022/04/30 00:43:23;;;;;;;8.43;4.97;;;;;;;;;;2106966;28;20123;-60
2022/04/30 00:44:24;;;;;;;12.53;5.80;;;;;;;;;;2106784;28;20051;-60
2022/04/30 00:45:25;;;;;;;8.15;4.85;;;;;;;;;;2106653;28;20285;-59
2022/04/30 00:46:27;;;;;;;11.27;5.60;;;;;;;;;;2106738;28;20131;-60
2022/04/30 00:47:28;;;;;;;10.73;5.03;;;;;;;;;;2106855;28;20048;-60
2022/04/30 00:48:29;;;;;;;9.60;4.50;;;;;;;;;;2106673;28;20127;-59
2022/04/30 00:49:30;;;;;;;11.18;5.60;;;;;;;;;;2106856;28;20052;-60
2022/04/30 00:50:34;;;;;;;10.63;5.03;;;;;;;;;;2106654;28;20056;-60
2022/04/30 00:51:36;;;;;;;11.15;4.90;;;;;;;;;;2106576;28;20201;-59
2022/04/30 00:52:37;;;;;;;10.38;4.82;;;;;;;;;;2106560;28;20379;-60
2022/04/30 00:53:39;;;;;;;10.13;5.47;;;;;;;;;;2106615;28;20489;-59
2022/04/30 00:54:41;;;;;;;8.68;5.40;;;;;;;;;;2106756;28;20131;-60
2022/04/30 00:55:43;;;;;;;10.98;4.63;;;;;;;;;;2106571;28;20036;-60
2022/04/30 00:56:44;;;;;;;;;;;;;;;;;;2107023;28;20127;-59
2022/04/30 00:57:46;;;;;;;9.20;4.97;;;;;;;;;;2106694;28;19977;-60
2022/04/30 00:58:47;;;;;;;8.23;4.82;;;;;;;;;;2106367;28;20071;-58
2022/04/30 00:59:51;;;;;;;7.90;4.78;;;;;;;;;;2106666;28;20048;-59
2022/04/30 01:00:52;;;;;;;10.73;5.22;;;;;;;;;;2106459;28;20131;-59
2022/04/30 01:01:57;;;;;;;8.52;4.65;;;;;;;;;;2106626;28;20123;-59
2022/04/30 01:02:59;;;;;;;8.80;4.85;;;;;;;;;;2106579;28;20044;-60
2022/04/30 01:04:00;;;;;;;11.30;5.15;;;;;;;;;;2106437;28;20044;-59
2022/04/30 01:05:02;;;;;;;8.75;5.20;;;;;;;;;;2106512;28;20056;-59
2022/04/30 01:06:04;;;;;;;10.60;5.80;;;;;;;;;;2106263;28;20131;-60
2022/04/30 01:07:05;;;;;;;;;;;;;;;;;;2106201;28;20382;-59
2022/04/30 01:08:06;;;;;;;9.00;5.13;;;;;;;;;;2105800;28;19932;-60
2022/04/30 01:09:07;;;;;;;10.45;5.32;;;;;;;;;;2105796;28;20138;-59
2022/04/30 01:10:09;;;;;;;8.60;4.78;;;;;;;;;;2101669;28;20505;-59
2022/04/30 01:11:10;;;;;;;10.43;4.72;;;;;;;;;;2098250;28;20325;-60
2022/04/30 01:12:13;;;;;;;9.38;4.57;;;;;;;;;;2098073;28;20131;-60
2022/04/30 01:13:15;;;;;;;10.00;5.00;;;;;;;;;;2098175;28;20048;-59
2022/04/30 01:14:17;;;;;;;6.97;4.53;;;;;;;;;;2098108;28;20127;-59
2022/04/30 01:15:19;;;;;;;10.45;5.40;;;;;;;;;;2098129;28;20569;-60
2022/04/30 01:16:21;;;;;;;7.82;4.50;;;;;;;;;;2098107;28;20127;-60
2022/04/30 01:17:22;;;;;;;8.15;4.38;;;;;;;;;;2098296;28;20051;-60
2022/04/30 01:18:23;;;;;;;7.95;4.65;;;;;;;;;;2097838;28;20482;-59
2022/04/30 01:19:26;;;;;;;7.57;4.75;;;;;;;;;;2098153;28;20246;-60
2022/04/30 01:20:27;;;;;;;9.55;5.13;;;;;;;;;;2098096;28;20128;-59
2022/04/30 01:21:30;;;;;;;9.18;5.30;;;;;;;;;;2098108;28;20041;-60
2022/04/30 01:22:34;;;;;;;7.25;4.07;;;;;;;;;;2098102;28;20127;-59
2022/04/30 01:23:37;;;;;;;7.93;3.92;;;;;;;;;;2097948;28;20177;-60
2022/04/30 01:24:38;;;;;;;6.43;4.40;;;;;;;;;;2097336;28;20500;-46
2022/04/30 01:25:40;;;;;;;6.32;4.20;;;;;;;;;;2097932;28;20132;-45
2022/04/30 01:26:41;;;;;;;6.63;3.85;;;;;;;;;;2098384;28;20054;-60
2022/04/30 01:27:43;;;;;;;9.52;4.63;;;;;;;;;;2097948;28;20044;-59
2022/04/30 01:28:44;;;;;;;5.45;3.67;;;;;;;;;;2098090;28;20127;-59
2022/04/30 01:29:45;;;;;;;7.87;3.73;;;;;;;;;;2098031;28;20045;-59
2022/04/30 01:30:46;;;;;;;7.53;4.38;;;;;;;;;;2097946;28;20072;-60
2022/04/30 01:37:23;;;;;;;6.82;3.70;;;;;;;;;;2097909;28;20160;-60
2022/04/30 01:38:24;;;;;;;6.53;4.25;;;;;;;;;;2089720;28;20119;-60
2022/04/30 01:39:26;;;;;;;5.15;3.50;;;;;;;;;;2089599;28;20041;-59
2022/04/30 01:40:28;;;;;;;7.72;4.55;;;;;;;;;;2089808;28;20053;-59
2022/04/30 01:41:29;;;;;;;7.53;4.53;;;;;;;;;;2089691;28;20127;-59
2022/04/30 01:42:31;;;;;;;8.13;4.23;;;;;;;;;;2089745;28;20053;-59
2022/04/30 01:43:33;;;;;;;7.90;4.47;;;;;;;;;;2089622;28;20182;-59
2022/04/30 01:44:34;;;;;;;8.30;4.60;;;;;;;;;;2089699;28;20132;-60
2022/04/30 01:45:35;;;;;;;7.43;4.32;;;;;;;;;;2089912;28;20140;-45
2022/04/30 01:46:37;;;;;;;7.60;4.15;;;;;;;;;;2089648;28;20401;-45
2022/04/30 01:47:39;;;;;;;7.80;4.45;;;;;;;;;;2089628;28;20383;-45
2022/04/30 01:48:40;;;;;;;7.15;4.22;;;;;;;;;;2089566;28;20565;-46
2022/04/30 01:49:41;;;;;;;8.05;4.43;;;;;;;;;;2089696;28;20128;-45
2022/04/30 01:50:42;;;;;;;7.27;4.50;;;;;;;;;;2089599;28;20517;-45
2022/04/30 01:51:49;;;;;;;8.23;3.80;;;;;;;;;;2089754;28;20131;-45
2022/04/30 01:52:51;;;;;;;8.55;4.55;;;;;;;;;;2089671;28;20474;-45
2022/04/30 01:53:52;;;;;;;7.00;4.25;;;;;;;;;;2089765;28;20127;-59
2022/04/30 01:54:53;;;;;;;7.15;4.22;;;;;;;;;;2089588;28;20340;-60
2022/04/30 01:55:55;;;;;;;8.95;4.38;;;;;;;;;;2089702;28;20047;-60
2022/04/30 01:56:56;;;;;;;6.85;4.38;;;;;;;;;;2089532;28;20045;-60
2022/04/30 01:57:57;;;;;;;12.02;5.13;;;;;;;;;;2089661;28;20048;-59
2022/04/30 01:58:58;;;;;;;6.13;4.53;;;;;;;;;;2089532;28;20045;-59
2022/04/30 02:00:00;;;;;;;8.00;4.00;;;;;;;;;;2089624;28;20505;-59
2022/04/30 02:01:02;;;;;;;;;;;;;;;;;;2090323;28;20057;-59
2022/04/30 02:02:04;;;;;;;8.55;4.47;;;;;;;;;;2089696;28;20131;-59
2022/04/30 02:03:06;;;;;;;7.28;4.32;;;;;;;;;;2089507;28;20510;-59
2022/04/30 02:04:08;;;;;;;7.85;4.45;;;;;;;;;;2089387;28;20418;-59
2022/04/30 02:05:12;;;;;;;6.43;4.10;;;;;;;;;;2090229;28;20041;-59
2022/04/30 02:06:13;;;;;;;7.88;4.47;;;;;;;;;;2089456;28;20054;-60
2022/04/30 02:07:14;;;;;;;9.50;4.60;;;;;;;;;;2089610;28;20044;-59
2022/04/30 02:08:18;;;;;;;7.05;4.35;;;;;;;;;;2089489;28;20051;-60
2022/04/30 02:09:19;;;;;;;9.13;4.13;;;;;;;;;;2089429;28;20577;-59
2022/04/30 02:10:21;;;;;;;8.13;4.47;;;;;;;;;;2089571;28;20049;-59
2022/04/30 02:11:22;;;;;;;10.00;5.15;;;;;;;;;;2089585;28;20049;-59
2022/04/30 02:12:24;;;;;;;6.63;4.35;;;;;;;;;;2089600;28;20055;-59
2022/04/30 02:13:25;;;;;;;8.32;4.20;;;;;;;;;;2089753;28;20053;-45
2022/04/30 02:14:27;;;;;;;7.55;4.25;;;;;;;;;;2089543;28;20059;-46
2022/04/30 02:15:28;;;;;;;;;;;;;;;;;;2090084;28;20041;-45
2022/04/30 02:16:30;;;;;;;8.23;4.72;;;;;;;;;;2089556;28;20015;-45
2022/04/30 02:17:35;;;;;;;6.85;4.07;;;;;;;;;;2089421;28;20388;-46
2022/04/30 02:18:36;;;;;;;8.25;4.70;;;;;;;;;;2091457;28;20132;-46
2022/04/30 02:20:53;;;;;;;7.13;4.32;;;;;;;;;;2096939;28;20361;-45
2022/04/30 02:21:57;;;;;;;10.32;4.95;;;;;;;;;;2097597;28;20074;-46
2022/04/30 02:23:00;;;;;;;7.65;4.70;;;;;;;;;;2097644;28;20094;-46
2022/04/30 02:24:02;;;;;;;7.55;4.55;;;;;;;;;;2097535;28;20571;-46
2022/04/30 02:25:04;;;;;;;8.13;4.72;;;;;;;;;;2097739;28;20504;-45
2022/04/30 02:26:06;;;;;;;10.88;5.63;;;;;;;;;;2097707;28;20565;-46
2022/04/30 02:27:06;;;;;;;;;;;;;;;;;;2098076;28;20135;-45
2022/04/30 02:28:08;;;;;;;9.32;4.78;;;;;;;;;;2097718;28;19921;-46
2022/04/30 02:29:10;;;;;;;8.68;4.35;;;;;;;;;;2097940;28;20306;-59
2022/04/30 02:30:12;;;;;;;5.53;3.50;;;;;;;;;;2097770;28;20509;-45
2022/04/30 02:31:21;;;;;;;10.85;5.32;;;;;;;;;;2097659;28;20611;-46
2022/04/30 02:32:22;;;;;;;10.52;4.95;;;;;;;;;;2097681;28;20049;-46
2022/04/30 02:33:23;;;;;;;9.60;3.92;;;;;;;;;;2097547;28;20484;-45
2022/04/30 02:34:24;;;;;;;6.78;4.03;;;;;;;;;;2097463;28;20135;-46
2022/04/30 02:35:26;;;;;;;8.73;4.67;;;;;;;;;;2097624;28;20501;-46
2022/04/30 02:36:27;;;;;;;8.95;4.80;;;;;;;;;;2097575;28;20135;-45
2022/04/30 02:37:29;;;;;;;12.18;5.80;;;;;;;;;;2097561;28;20048;-45
2022/04/30 02:38:30;;;;;;;13.25;6.32;;;;;;;;;;2097553;28;20101;-45
2022/04/30 02:39:31;;;;;;;12.77;6.18;;;;;;;;;;2097673;28;20131;-46
2022/04/30 02:40:33;;;;;;;12.18;6.00;;;;;;;;;;2097690;28;20085;-45
2022/04/30 02:41:35;;;;;;;12.95;5.43;;;;;;;;;;2097622;28;20143;-45
2022/04/30 02:42:37;;;;;;;8.93;5.57;;;;;;;;;;2097784;28;20044;-45
2022/04/30 02:43:38;;;;;;;11.73;5.78;;;;;;;;;;2097554;28;20132;-46
2022/04/30 02:44:40;;;;;;;11.40;5.07;;;;;;;;;;2097514;28;20051;-45
2022/04/30 02:45:42;;;;;;;10.52;5.78;;;;;;;;;;2097589;28;20067;-45
2022/04/30 02:46:43;;;;;;;;;;;;;;;;;;2097980;28;20049;-46
2022/04/30 02:47:45;;;;;;;11.88;5.50;;;;;;;;;;2097646;28;20018;-45
2022/04/30 02:48:46;;;;;;;13.07;5.82;;;;;;;;;;2097438;28;20104;-46
2022/04/30 02:49:47;;;;;;;12.05;5.70;;;;;;;;;;2097491;28;20576;-46
2022/04/30 02:50:49;;;;;;;11.17;5.03;;;;;;;;;;2097716;28;20057;-59
2022/04/30 02:51:50;;;;;;;8.88;4.90;;;;;;;;;;2097576;28;20128;-59
2022/04/30 02:52:54;;;;;;;12.52;6.30;;;;;;;;;;2097436;28;20494;-59
2022/04/30 02:53:55;;;;;;;11.48;6.60;;;;;;;;;;2097505;28;20045;-59
2022/04/30 02:54:56;;;;;;;12.20;5.20;;;;;;;;;;2097639;28;20183;-59
2022/04/30 02:55:59;;;;;;;10.25;5.47;;;;;;;;;;2097617;28;20044;-59
2022/04/30 02:57:01;;;;;;;11.13;5.55;;;;;;;;;;2097506;28;20052;-59
2022/04/30 03:00:41;;;;;;;9.35;5.32;;;;;;;;;;2097381;28;20513;-45
2022/04/30 03:01:42;;;;;;;10.75;5.53;;;;;;;;;;2097447;28;20041;-45
2022/04/30 03:02:43;;;;;;;9.65;5.38;;;;;;;;;;2097467;28;20466;-46
2022/04/30 03:03:45;;;;;;;9.50;5.22;;;;;;;;;;2097496;28;20048;-45
2022/04/30 03:04:46;;;;;;;11.52;5.22;;;;;;;;;;2097410;28;20047;-45
2022/04/30 03:05:50;;;;;;;9.43;5.32;;;;;;;;;;2097363;28;20479;-46
2022/04/30 03:06:52;;;;;;;11.27;5.53;;;;;;;;;;2097409;28;20049;-45
2022/04/30 03:07:53;;;;;;;9.07;4.70;;;;;;;;;;2097497;28;20123;-45
2022/04/30 03:08:54;;;;;;;12.27;6.50;;;;;;;;;;2097482;28;20178;-59
2022/04/30 03:09:55;;;;;;;10.95;5.45;;;;;;;;;;2097675;28;20182;-59
2022/04/30 03:10:57;;;;;;;14.55;6.50;;;;;;;;;;2097457;28;20139;-59
2022/04/30 03:11:58;;;;;;;10.90;5.65;;;;;;;;;;2097527;28;20045;-59
2022/04/30 03:12:59;;;;;;;11.10;6.13;;;;;;;;;;2097491;28;20135;-59
2022/04/30 03:14:01;;;;;;;13.35;6.22;;;;;;;;;;2097407;28;20048;-59
2022/04/30 03:15:02;;;;;;;12.98;5.68;;;;;;;;;;2097337;28;20390;-59
2022/04/30 03:22:37;;;;;;;8.80;4.90;;;;;;;;;;2089993;28;20500;-60
2022/04/30 03:23:39;;;;;;;8.55;4.13;;;;;;;;;;2097388;28;20072;-61
2022/04/30 03:24:40;;;;;;;;;;;;;;;;;;2098006;28;20131;-44
2022/04/30 03:25:41;;;;;;;9.20;3.83;;;;;;;;;;2097251;28;19926;-44
2022/04/30 03:26:43;;;;;;;5.50;3.07;;;;;;;;;;2097378;28;20052;-44
2022/04/30 03:27:44;;;;;;;6.22;3.42;;;;;;;;;;2097450;28;20123;-44
2022/04/30 03:28:46;;;;;;;4.90;3.28;;;;;;;;;;2097294;28;20036;-44
2022/04/30 03:29:47;;;;;;;8.00;3.08;;;;;;;;;;2097601;28;20045;-44
2022/04/30 03:30:48;;;;;;;4.83;2.80;;;;;;;;;;2105779;28;20126;-44
2022/04/30 03:31:49;;;;;;;3.80;2.72;;;;;;;;;;2105560;28;20122;-44
2022/04/30 03:32:52;;;;;;;4.18;2.72;;;;;;;;;;2105848;28;20416;-60
2022/04/30 03:33:53;;;;;;;3.53;2.50;;;;;;;;;;2105552;28;20188;-60
2022/04/30 03:34:54;;;;;;;4.15;2.50;;;;;;;;;;2105609;28;20382;-60
2022/04/30 03:35:55;;;;;;;4.15;2.35;;;;;;;;;;2105627;28;20044;-60
2022/04/30 03:36:56;;;;;;;5.03;2.70;;;;;;;;;;2105776;28;20058;-61
2022/04/30 03:37:57;;;;;;;5.28;2.83;;;;;;;;;;2105903;28;20048;-61
2022/04/30 03:38:58;;;;;;;3.90;2.63;;;;;;;;;;2105465;28;20097;-62
2022/04/30 03:40:00;;;;;;;3.40;2.30;;;;;;;;;;2105633;28;20614;-62
2022/04/30 03:41:00;;;;;;;3.75;2.33;;;;;;;;;;2105634;28;20040;-62
2022/04/30 03:42:02;;;;;;;5.83;3.10;;;;;;;;;;2105567;28;20589;-62
2022/04/30 03:43:03;;;;;;;3.80;2.58;;;;;;;;;;2105574;28;20052;-62
2022/04/30 03:44:07;;;;;;;4.10;2.40;;;;;;;;;;2105609;28;20051;-63
2022/04/30 03:45:08;;;;;;;3.85;2.20;;;;;;;;;;2105670;28;20119;-63
2022/04/30 03:46:10;;;;;;;2.90;2.38;;;;;;;;;;2105686;28;20100;-63
2022/04/30 03:47:11;;;;;;;3.97;2.83;;;;;;;;;;2105435;28;20135;-64
2022/04/30 03:48:12;;;;;;;3.67;2.42;;;;;;;;;;2105079;28;20490;-64
2022/04/30 03:49:13;;;;;;;4.35;2.47;;;;;;;;;;2105397;28;20050;-63
2022/04/30 03:50:15;;;;;;;3.97;2.50;;;;;;;;;;2105848;28;20504;-65
2022/04/30 03:51:16;;;;;;;4.82;2.67;;;;;;;;;;2105463;28;20052;-65
2022/04/30 03:52:21;;;;;;;4.07;2.75;;;;;;;;;;2105574;28;20409;-65
2022/04/30 03:53:22;;;;;;;4.15;2.70;;;;;;;;;;2105384;28;20528;-65
2022/04/30 03:54:23;;;;;;;6.30;3.00;;;;;;;;;;2105389;28;20048;-66
2022/04/30 03:55:25;;;;;;;4.78;2.90;;;;;;;;;;2105469;28;20072;-66
2022/04/30 03:56:26;;;;;;;4.05;2.72;;;;;;;;;;2105487;28;20044;-66
2022/04/30 03:57:28;;;;;;;5.70;2.60;;;;;;;;;;2105644;28;20496;-66
2022/04/30 03:58:30;;;;;;;4.72;2.70;;;;;;;;;;2105292;28;20485;-66
2022/04/30 03:59:31;;;;;;;4.80;3.30;;;;;;;;;;2105706;28;20048;-44
2022/04/30 04:00:33;;;;;;;4.53;2.97;;;;;;;;;;2105528;28;20044;-44
2022/04/30 04:01:35;;;;;;;4.18;2.60;;;;;;;;;;2105554;28;20101;-44
2022/04/30 04:02:39;;;;;;;;;;;;;;;;;;2106066;28;20048;-44
2022/04/30 04:03:42;;;;;;;3.88;2.55;;;;;;;;;;2105532;28;19923;-44
2022/04/30 04:04:43;;;;;;;5.03;2.72;;;;;;;;;;2105516;28;20044;-43
2022/04/30 04:05:46;;;;;;;4.10;2.65;;;;;;;;;;2105391;28;20048;-43
2022/04/30 04:06:48;;;;;;;5.60;2.95;;;;;;;;;;2105618;28;20040;-43
2022/04/30 04:07:49;;;;;;;5.90;3.13;;;;;;;;;;2105301;28;20052;-44
2022/04/30 04:08:52;;;;;;;5.53;3.33;;;;;;;;;;2105539;28;20137;-44
2022/04/30 04:09:53;;;;;;;5.72;3.03;;;;;;;;;;2105330;28;20334;-44
2022/04/30 04:10:54;;;;;;;4.88;2.97;;;;;;;;;;2105375;28;20580;-44
2022/04/30 04:11:55;;;;;;;4.75;3.15;;;;;;;;;;2105478;28;20136;-44
2022/04/30 04:17:37;;;;;;;6.05;3.20;;;;;;;;;;2105611;28;20067;-44
2022/04/30 04:18:16;;;;;;;4.13;2.20;;;;;;;;;;2097023;28;20049;-44
2022/04/30 04:19:20;;;;;;;5.22;2.72;;;;;;;;;;2096899;28;20124;-44
2022/04/30 04:20:24;;;;;;;3.15;2.08;;;;;;;;;;2096963;28;20056;-44
2022/04/30 04:21:28;;;;;;;3.95;2.20;;;;;;;;;;2097028;28;20487;-44
2022/04/30 04:22:29;;;;;;;2.73;1.83;;;;;;;;;;2097193;28;20051;-44
2022/04/30 04:25:58;;;;;;;3.95;2.58;;;;;;;;;;2097063;28;20147;-43
2022/04/30 04:26:11;;;;;;;2.70;1.85;;;;;;;;;;2096903;28;20478;-44
2022/04/30 04:27:12;;;;;;;2.67;1.67;;;;;;;;;;2097097;28;20127;-44
2022/04/30 04:28:19;;;;;;;2.50;1.58;;;;;;;;;;2097172;28;20185;-45
2022/04/30 04:29:20;;;;;;;2.83;1.40;;;;;;;;;;2097110;28;20048;-66
2022/04/30 04:30:21;;;;;;;3.33;1.80;;;;;;;;;;2096946;28;20107;-66
2022/04/30 04:31:23;;;;;;;4.10;1.58;;;;;;;;;;2097007;28;20131;-66
2022/04/30 04:32:24;;;;;;;;;;;;;;;;;;2097380;28;20055;-65
2022/04/30 04:33:25;;;;;;;3.65;1.75;;;;;;;;;;2096957;28;19930;-65
2022/04/30 04:34:27;;;;;;;3.27;1.50;;;;;;;;;;2096978;28;20147;-65
2022/04/30 04:35:28;;;;;;;3.50;1.42;;;;;;;;;;2097238;28;20045;-45
2022/04/30 04:36:29;;;;;;;3.85;1.90;;;;;;;;;;2096980;28;20087;-45
2022/04/30 04:37:31;;;;;;;3.25;1.55;;;;;;;;;;2097013;28;20079;-44
2022/04/30 04:38:32;;;;;;;1.98;1.23;;;;;;;;;;2096829;28;20055;-44
2022/04/30 04:39:33;;;;;;;2.27;1.57;;;;;;;;;;2097026;28;20438;-44
2022/04/30 04:40:35;;;;;;;2.20;1.83;;;;;;;;;;2097125;28;20063;-45
2022/04/30 04:41:36;;;;;;;2.53;1.52;;;;;;;;;;2096864;28;20049;-44
2022/04/30 04:42:37;;;;;;;2.63;1.70;;;;;;;;;;2097018;28;20048;-45
2022/04/30 04:43:38;;;;;;;2.83;1.58;;;;;;;;;;2097000;28;20140;-45
2022/04/30 04:44:39;;;;;;;1.80;1.40;;;;;;;;;;2096865;28;20520;-45
2022/04/30 04:45:41;;;;;;;2.03;1.30;;;;;;;;;;2096948;28;20135;-44
2022/04/30 04:46:43;;;;;;;3.50;1.60;;;;;;;;;;2096975;28;20048;-44
2022/04/30 04:47:49;;;;;;;2.38;1.63;;;;;;;;;;2096814;28;20397;-44
2022/04/30 04:48:51;;;;;;;2.47;1.42;;;;;;;;;;2096926;28;20127;-45
2022/04/30 04:49:52;;;;;;;;;;;;;;;;;;2097367;28;20105;-44
2022/04/30 04:50:53;;;;;;;2.78;1.30;;;;;;;;;;2096792;28;19920;-45
2022/04/30 04:51:54;;;;;;;2.55;1.50;;;;;;;;;;2096970;28;20047;-45
2022/04/30 04:52:55;;;;;;;2.22;1.48;;;;;;;;;;2096751;28;20140;-45
2022/04/30 04:53:56;;;;;;;1.85;1.42;;;;;;;;;;2096872;28;20561;-45
2022/04/30 04:54:57;;;;;;;3.75;1.83;;;;;;;;;;2096815;28;20045;-44
2022/04/30 04:55:59;;;;;;;2.70;1.58;;;;;;;;;;2097164;28;20049;-45
2022/04/30 04:57:00;;;;;;;3.50;1.65;;;;;;;;;;2096998;28;20043;-45
2022/04/30 04:58:02;;;;;;;2.30;1.67;;;;;;;;;;2096846;28;20045;-45
2022/04/30 04:59:02;;;;;;;2.55;1.75;;;;;;;;;;2096851;28;20401;-62
2022/04/30 05:00:05;;;;;;;2.80;1.63;;;;;;;;;;2097513;28;20044;-62
2022/04/30 05:01:05;;;;;;;2.78;1.63;;;;;;;;;;2098408;28;20124;-61
2022/04/30 05:02:08;;;;;;;2.23;1.53;;;;;;;;;;2098365;28;20110;-62
2022/04/30 05:03:09;;;;;;;2.60;1.52;;;;;;;;;;2098303;28;20339;-62
2022/04/30 05:04:10;;;;;;;2.97;1.90;;;;;;;;;;2098158;28;20106;-61
2022/04/30 05:05:13;;;;;;;3.95;1.67;;;;;;;;;;2098147;28;20170;-61
2022/04/30 05:06:14;;;;;;;2.47;1.58;;;;;;;;;;2098160;28;20051;-61
2022/04/30 05:07:15;;;;;;;2.63;1.77;;;;;;;;;;2098409;28;20494;-61
2022/04/30 05:08:16;;;;;;;2.60;1.83;;;;;;;;;;2098227;28;20048;-63
2022/04/30 05:09:17;;;;;;;5.13;2.30;;;;;;;;;;2098493;28;20460;-63
2022/04/30 05:10:18;;;;;;;2.08;1.60;;;;;;;;;;2098198;28;20570;-64
2022/04/30 05:11:20;;;;;;;2.92;1.95;;;;;;;;;;2098189;28;20106;-64
2022/04/30 05:12:21;;;;;;;2.67;2.03;;;;;;;;;;2098205;28;20470;-65
2022/04/30 05:13:22;;;;;;;3.43;1.83;;;;;;;;;;2098402;28;20075;-64
2022/04/30 05:14:23;;;;;;;3.13;1.98;;;;;;;;;;2098105;28;20517;-65
2022/04/30 05:15:24;;;;;;;2.73;1.90;;;;;;;;;;2098041;28;20048;-65
2022/04/30 05:16:25;;;;;;;3.38;1.80;;;;;;;;;;2098201;28;20525;-66
2022/04/30 05:17:27;;;;;;;4.15;2.35;;;;;;;;;;2098099;28;20051;-65
2022/04/30 05:18:28;;;;;;;3.78;2.10;;;;;;;;;;2096781;28;20131;-65
2022/04/30 05:19:29;;;;;;;3.72;2.30;;;;;;;;;;2089749;28;20057;-64
2022/04/30 05:20:32;;;;;;;3.95;2.40;;;;;;;;;;2090070;28;20136;-65
2022/04/30 05:21:44;;;;;;;5.60;2.88;;;;;;;;;;2089869;28;20133;-65
2022/04/30 05:22:45;;;;;;;7.78;4.28;;;;;;;;;;2098160;28;20404;-64
2022/04/30 05:23:46;;;;;;;6.95;4.43;;;;;;;;;;2106355;28;20113;-64
2022/04/30 05:24:48;;;;;;;7.85;4.35;;;;;;;;;;2106465;28;20048;-63
2022/04/30 05:25:49;;;;;;;6.65;4.63;;;;;;;;;;2106300;28;20056;-63
2022/04/30 05:26:50;;;;;;;10.27;5.30;;;;;;;;;;2106743;28;20040;-63
2022/04/30 05:27:52;;;;;;;10.88;5.28;;;;;;;;;;2106595;28;20047;-63
2022/04/30 05:28:53;;;;;;;11.05;5.55;;;;;;;;;;2106281;28;20119;-63
2022/04/30 05:29:54;;;;;;;9.95;5.97;;;;;;;;;;2106723;28;20122;-45
2022/04/30 05:30:55;;;;;;;10.90;5.70;;;;;;;;;;2106430;28;20036;-45
2022/04/30 05:31:56;;;;;;;14.20;6.60;;;;;;;;;;2106520;28;20115;-45
2022/04/30 05:32:58;;;;;;;9.98;6.57;;;;;;;;;;2106396;28;20051;-45
2022/04/30 05:33:59;;;;;;;;;;;;;;;;;;2106735;28;20047;-45
2022/04/30 05:35:00;;;;;;;11.77;6.45;;;;;;;;;;2106467;28;20007;-45
2022/04/30 05:36:01;;;;;;;12.10;6.53;;;;;;;;;;2106440;28;20139;-45
2022/04/30 05:37:02;;;;;;;10.05;6.25;;;;;;;;;;2106493;28;20048;-45
2022/04/30 05:38:04;;;;;;;10.60;6.05;;;;;;;;;;2106317;28;20584;-45
2022/04/30 05:39:05;;;;;;;11.40;6.78;;;;;;;;;;2106540;28;20560;-63
2022/04/30 05:40:07;;;;;;;10.52;6.40;;;;;;;;;;2106488;28;20089;-45
2022/04/30 05:41:08;;;;;;;12.05;6.72;;;;;;;;;;2106393;28;20075;-45
2022/04/30 05:42:09;;;;;;;10.60;6.22;;;;;;;;;;2106382;28;20135;-45
2022/04/30 05:43:10;;;;;;;13.80;6.57;;;;;;;;;;2106827;28;20147;-64
2022/04/30 05:44:11;;;;;;;11.48;6.70;;;;;;;;;;2106351;28;20052;-63
2022/04/30 05:45:12;;;;;;;14.90;7.50;;;;;;;;;;2106472;28;20397;-64
2022/04/30 05:46:13;;;;;;;10.52;7.15;;;;;;;;;;2106284;28;20447;-63
2022/04/30 05:47:18;;;;;;;13.52;7.15;;;;;;;;;;2106426;28;20048;-63
2022/04/30 05:48:20;;;;;;;11.70;6.82;;;;;;;;;;2106172;28;20143;-64
2022/04/30 05:49:21;;;;;;;8.52;6.47;;;;;;;;;;2106446;28;20116;-64
2022/04/30 05:50:22;;;;;;;10.30;6.60;;;;;;;;;;2106567;28;20485;-64
2022/04/30 05:51:23;;;;;;;9.87;6.67;;;;;;;;;;2106264;28;20051;-64
2022/04/30 05:52:24;;;;;;;10.98;6.40;;;;;;;;;;2106498;28;20052;-64
2022/04/30 05:53:26;;;;;;;13.03;6.87;;;;;;;;;;2106220;28;20485;-64
2022/04/30 05:54:28;;;;;;;11.60;6.47;;;;;;;;;;2106262;28;20446;-64
2022/04/30 05:55:29;;;;;;;11.75;6.80;;;;;;;;;;2106286;28;20136;-64
2022/04/30 05:56:30;;;;;;;10.23;5.70;;;;;;;;;;2106224;28;20134;-64
2022/04/30 05:57:31;;;;;;;8.32;5.70;;;;;;;;;;2106267;28;20048;-64
2022/04/30 05:58:32;;;;;;;9.50;5.63;;;;;;;;;;2106170;28;20554;-63
2022/04/30 05:59:34;;;;;;;8.02;5.22;;;;;;;;;;2106047;28;20086;-64
2022/04/30 06:00:35;;;;;;;8.95;5.47;;;;;;;;;;2106270;28;20127;-64
2022/04/30 06:01:36;;;;;;;10.98;5.40;;;;;;;;;;2106214;28;20109;-64
2022/04/30 06:02:38;;;;;;;10.02;4.65;;;;;;;;;;2106100;28;20551;-63
2022/04/30 06:03:39;;;;;;;7.90;4.32;;;;;;;;;;2106040;28;20493;-64
2022/04/30 06:04:42;;;;;;;9.07;4.28;;;;;;;;;;2106094;28;20055;-64
2022/04/30 06:05:43;;;;;;;9.27;4.30;;;;;;;;;;2106117;28;20044;-64
2022/04/30 06:06:45;;;;;;;5.80;3.30;;;;;;;;;;2106105;28;20040;-64
2022/04/30 06:07:46;;;;;;;6.72;3.70;;;;;;;;;;2106194;28;20105;-63
2022/04/30 06:08:47;;;;;;;5.00;2.90;;;;;;;;;;2106056;28;20101;-62
2022/04/30 06:09:48;;;;;;;7.07;3.65;;;;;;;;;;2106229;28;20044;-63
2022/04/30 06:10:50;;;;;;;5.07;2.70;;;;;;;;;;2105632;28;20071;-63
2022/04/30 06:11:51;;;;;;;4.80;2.60;;;;;;;;;;2101609;28;20093;-63
2022/04/30 06:12:52;;;;;;;5.30;2.77;;;;;;;;;;2097883;28;20093;-63
2022/04/30 06:13:53;;;;;;;4.68;2.70;;;;;;;;;;2097620;28;20102;-63
2022/04/30 06:14:54;;;;;;;4.47;2.60;;;;;;;;;;2097879;28;20441;-63
2022/04/30 06:15:55;;;;;;;7.10;3.00;;;;;;;;;;2097670;28;20036;-65
2022/04/30 06:16:57;;;;;;;5.07;3.00;;;;;;;;;;2097807;28;20044;-64
2022/04/30 06:17:58;;;;;;;5.00;2.72;;;;;;;;;;2097605;28;20045;-64
2022/04/30 06:19:00;;;;;;;4.73;2.87;;;;;;;;;;2100117;28;20050;-63
2022/04/30 06:20:16;;;;;;;4.35;2.33;;;;;;;;;;2106109;28;20305;-63
2022/04/30 06:21:18;;;;;;;4.10;2.80;;;;;;;;;;2106168;28;20075;-62
2022/04/30 06:22:19;;;;;;;4.25;2.40;;;;;;;;;;2106063;28;20287;-63
2022/04/30 06:23:20;;;;;;;3.58;1.80;;;;;;;;;;2106020;28;20417;-63
2022/04/30 06:24:21;;;;;;;3.60;2.10;;;;;;;;;;2106229;28;20104;-46
2022/04/30 06:25:22;;;;;;;3.63;2.20;;;;;;;;;;2106366;28;20129;-46
2022/04/30 06:26:23;;;;;;;3.15;2.20;;;;;;;;;;2106174;28;20050;-47
2022/04/30 06:27:24;;;;;;;3.23;1.90;;;;;;;;;;2106009;28;20040;-46
2022/04/30 06:28:25;;;;;;;3.20;2.10;;;;;;;;;;2106003;28;20485;-46
2022/04/30 06:29:26;;;;;;;4.07;2.20;;;;;;;;;;2105875;28;20386;-46
2022/04/30 06:30:28;;;;;;;4.30;2.13;;;;;;;;;;2106129;28;20059;-46
2022/04/30 06:31:29;;;;;;;5.22;2.28;;;;;;;;;;2105938;28;20480;-46